sensor_id;sensor_type;location;lat;lon;timestamp;temperature;humidity
79244;SHT31;68672;42.676;23.356;2023-04-25T00:01:20;12.90;74.17
79244;SHT31;68672;42.676;23.356;2023-04-25T00:03:47;12.86;73.18
79244;SHT31;68672;42.676;23.356;2023-04-25T00:06:12;12.84;73.39
79244;SHT31;68672;42.676;23.356;2023-04-25T00:08:38;12.82;73.77
79244;SHT31;68672;42.676;23.356;2023-04-25T00:11:04;12.90;74.41
79244;SHT31;68672;42.676;23.356;2023-04-25T00:13:30;12.90;74.49
79244;SHT31;68672;42.676;23.356;2023-04-25T00:15:55;12.97;74.70
79244;SHT31;68672;42.676;23.356;2023-04-25T00:18:28;12.94;74.55
79244;SHT31;68672;42.676;23.356;2023-04-25T00:20:58;12.96;74.71
79244;SHT31;68672;42.676;23.356;2023-04-25T00:23:23;12.96;74.80
79244;SHT31;68672;42.676;23.356;2023-04-25T00:25:49;12.90;75.14
79244;SHT31;68672;42.676;23.356;2023-04-25T00:28:15;12.87;75.36
79244;SHT31;68672;42.676;23.356;2023-04-25T00:30:41;12.86;75.28
79244;SHT31;68672;42.676;23.356;2023-04-25T00:33:07;12.77;75.35
79244;SHT31;68672;42.676;23.356;2023-04-25T00:35:35;12.73;75.52
79244;SHT31;68672;42.676;23.356;2023-04-25T00:38:01;12.66;75.86
79244;SHT31;68672;42.676;23.356;2023-04-25T00:40:27;12.60;75.99
79244;SHT31;68672;42.676;23.356;2023-04-25T00:42:56;12.55;76.12
79244;SHT31;68672;42.676;23.356;2023-04-25T00:45:22;12.56;76.26
79244;SHT31;68672;42.676;23.356;2023-04-25T00:47:52;12.53;76.44
79244;SHT31;68672;42.676;23.356;2023-04-25T00:50:17;12.52;76.63
79244;SHT31;68672;42.676;23.356;2023-04-25T00:52:44;12.55;76.74
79244;SHT31;68672;42.676;23.356;2023-04-25T00:55:10;12.56;76.48
79244;SHT31;68672;42.676;23.356;2023-04-25T00:57:36;12.62;76.38
79244;SHT31;68672;42.676;23.356;2023-04-25T01:00:04;12.62;75.90
79244;SHT31;68672;42.676;23.356;2023-04-25T01:02:31;12.63;75.61
79244;SHT31;68672;42.676;23.356;2023-04-25T01:04:57;12.60;75.34
79244;SHT31;68672;42.676;23.356;2023-04-25T01:07:22;12.60;75.64
79244;SHT31;68672;42.676;23.356;2023-04-25T01:09:48;12.59;76.28
79244;SHT31;68672;42.676;23.356;2023-04-25T01:12:13;12.59;76.68
79244;SHT31;68672;42.676;23.356;2023-04-25T01:14:39;12.56;76.77
79244;SHT31;68672;42.676;23.356;2023-04-25T01:17:05;12.56;76.78
79244;SHT31;68672;42.676;23.356;2023-04-25T01:19:33;12.59;76.54
79244;SHT31;68672;42.676;23.356;2023-04-25T01:21:58;12.63;76.58
79244;SHT31;68672;42.676;23.356;2023-04-25T01:24:24;12.67;76.61
79244;SHT31;68672;42.676;23.356;2023-04-25T01:26:53;12.72;76.62
79244;SHT31;68672;42.676;23.356;2023-04-25T01:29:23;12.70;76.57
79244;SHT31;68672;42.676;23.356;2023-04-25T01:31:50;12.72;76.53
79244;SHT31;68672;42.676;23.356;2023-04-25T01:34:16;12.67;76.57
79244;SHT31;68672;42.676;23.356;2023-04-25T01:36:41;12.70;76.56
79244;SHT31;68672;42.676;23.356;2023-04-25T01:39:07;12.67;76.68
79244;SHT31;68672;42.676;23.356;2023-04-25T01:41:33;12.62;76.69
79244;SHT31;68672;42.676;23.356;2023-04-25T01:44:00;12.52;76.82
79244;SHT31;68672;42.676;23.356;2023-04-25T01:46:25;12.46;76.90
79244;SHT31;68672;42.676;23.356;2023-04-25T01:48:50;12.50;76.77
79244;SHT31;68672;42.676;23.356;2023-04-25T01:51:16;12.46;76.76
79244;SHT31;68672;42.676;23.356;2023-04-25T01:53:42;12.43;76.64
79244;SHT31;68672;42.676;23.356;2023-04-25T01:56:08;12.36;76.79
79244;SHT31;68672;42.676;23.356;2023-04-25T01:58:36;12.36;76.72
79244;SHT31;68672;42.676;23.356;2023-04-25T02:01:04;12.33;76.71
79244;SHT31;68672;42.676;23.356;2023-04-25T02:03:31;12.32;76.66
79244;SHT31;68672;42.676;23.356;2023-04-25T02:05:57;12.29;76.71
79244;SHT31;68672;42.676;23.356;2023-04-25T02:08:22;12.31;76.61
79244;SHT31;68672;42.676;23.356;2023-04-25T02:10:48;12.26;76.69
79244;SHT31;68672;42.676;23.356;2023-04-25T02:13:16;12.25;76.85
79244;SHT31;68672;42.676;23.356;2023-04-25T02:15:41;12.24;76.98
79244;SHT31;68672;42.676;23.356;2023-04-25T02:18:07;12.25;76.75
79244;SHT31;68672;42.676;23.356;2023-04-25T02:20:35;12.26;76.69
79244;SHT31;68672;42.676;23.356;2023-04-25T02:23:00;12.24;76.67
79244;SHT31;68672;42.676;23.356;2023-04-25T02:25:26;12.17;76.57
79244;SHT31;68672;42.676;23.356;2023-04-25T02:27:51;12.11;76.67
79244;SHT31;68672;42.676;23.356;2023-04-25T02:30:16;12.08;76.85
79244;SHT31;68672;42.676;23.356;2023-04-25T02:32:42;12.04;76.87
79244;SHT31;68672;42.676;23.356;2023-04-25T02:35:08;12.04;76.79
79244;SHT31;68672;42.676;23.356;2023-04-25T02:37:34;11.98;76.78
79244;SHT31;68672;42.676;23.356;2023-04-25T02:40:01;11.90;76.75
79244;SHT31;68672;42.676;23.356;2023-04-25T02:42:27;11.87;76.72
79244;SHT31;68672;42.676;23.356;2023-04-25T02:44:52;11.87;76.75
79244;SHT31;68672;42.676;23.356;2023-04-25T02:47:18;11.88;76.70
79244;SHT31;68672;42.676;23.356;2023-04-25T02:49:43;11.80;76.84
79244;SHT31;68672;42.676;23.356;2023-04-25T02:52:09;11.75;76.79
79244;SHT31;68672;42.676;23.356;2023-04-25T02:54:34;11.73;76.79
79244;SHT31;68672;42.676;23.356;2023-04-25T02:57:02;11.70;76.95
79244;SHT31;68672;42.676;23.356;2023-04-25T02:59:28;11.67;77.23
79244;SHT31;68672;42.676;23.356;2023-04-25T03:01:53;11.67;77.23
79244;SHT31;68672;42.676;23.356;2023-04-25T03:04:19;11.63;77.27
79244;SHT31;68672;42.676;23.356;2023-04-25T03:06:46;11.62;77.00
79244;SHT31;68672;42.676;23.356;2023-04-25T03:09:11;11.60;76.97
79244;SHT31;68672;42.676;23.356;2023-04-25T03:11:38;11.63;76.89
79244;SHT31;68672;42.676;23.356;2023-04-25T03:14:04;11.64;77.02
79244;SHT31;68672;42.676;23.356;2023-04-25T03:16:29;11.62;76.96
79244;SHT31;68672;42.676;23.356;2023-04-25T03:18:56;11.63;76.95
79244;SHT31;68672;42.676;23.356;2023-04-25T03:21:24;11.66;76.80
79244;SHT31;68672;42.676;23.356;2023-04-25T03:23:50;11.70;76.64
79244;SHT31;68672;42.676;23.356;2023-04-25T03:26:18;11.69;76.61
79244;SHT31;68672;42.676;23.356;2023-04-25T03:28:43;11.73;76.51
79244;SHT31;68672;42.676;23.356;2023-04-25T03:31:09;11.75;76.44
79244;SHT31;68672;42.676;23.356;2023-04-25T03:33:34;11.78;76.49
79244;SHT31;68672;42.676;23.356;2023-04-25T03:36:00;11.80;76.60
79244;SHT31;68672;42.676;23.356;2023-04-25T03:38:28;11.85;76.63
79244;SHT31;68672;42.676;23.356;2023-04-25T03:40:53;11.84;76.64
79244;SHT31;68672;42.676;23.356;2023-04-25T03:43:19;11.85;76.81
79244;SHT31;68672;42.676;23.356;2023-04-25T03:45:44;11.88;76.72
79244;SHT31;68672;42.676;23.356;2023-04-25T03:48:10;11.88;76.55
79244;SHT31;68672;42.676;23.356;2023-04-25T03:50:35;11.94;76.55
79244;SHT31;68672;42.676;23.356;2023-04-25T03:53:00;11.95;76.63
79244;SHT31;68672;42.676;23.356;2023-04-25T03:55:26;12.05;76.80
79244;SHT31;68672;42.676;23.356;2023-04-25T03:57:58;12.02;76.51
79244;SHT31;68672;42.676;23.356;2023-04-25T04:00:24;12.06;76.63
79244;SHT31;68672;42.676;23.356;2023-04-25T04:02:49;12.12;76.70
79244;SHT31;68672;42.676;23.356;2023-04-25T04:05:15;12.14;77.06
79244;SHT31;68672;42.676;23.356;2023-04-25T04:07:40;12.22;77.09
79244;SHT31;68672;42.676;23.356;2023-04-25T04:10:09;12.35;77.14
79244;SHT31;68672;42.676;23.356;2023-04-25T04:12:35;12.41;77.14
79244;SHT31;68672;42.676;23.356;2023-04-25T04:15:02;12.55;76.98
79244;SHT31;68672;42.676;23.356;2023-04-25T04:17:29;12.64;76.75
79244;SHT31;68672;42.676;23.356;2023-04-25T04:19:57;12.67;76.59
79244;SHT31;68672;42.676;23.356;2023-04-25T04:22:23;12.77;76.07
79244;SHT31;68672;42.676;23.356;2023-04-25T04:24:49;12.84;75.52
79244;SHT31;68672;42.676;23.356;2023-04-25T04:27:18;12.93;74.80
79244;SHT31;68672;42.676;23.356;2023-04-25T04:29:44;12.90;74.68
79244;SHT31;68672;42.676;23.356;2023-04-25T04:32:09;12.94;75.02
79244;SHT31;68672;42.676;23.356;2023-04-25T04:34:35;12.99;75.13
79244;SHT31;68672;42.676;23.356;2023-04-25T04:37:01;13.01;75.18
79244;SHT31;68672;42.676;23.356;2023-04-25T04:39:26;13.07;74.80
79244;SHT31;68672;42.676;23.356;2023-04-25T04:41:51;13.13;74.44
79244;SHT31;68672;42.676;23.356;2023-04-25T04:44:17;13.14;74.22
79244;SHT31;68672;42.676;23.356;2023-04-25T04:46:43;13.18;74.15
79244;SHT31;68672;42.676;23.356;2023-04-25T04:49:10;13.17;73.98
79244;SHT31;68672;42.676;23.356;2023-04-25T04:51:36;13.17;73.84
79244;SHT31;68672;42.676;23.356;2023-04-25T04:54:02;13.18;74.14
79244;SHT31;68672;42.676;23.356;2023-04-25T04:56:29;13.13;74.63
79244;SHT31;68672;42.676;23.356;2023-04-25T04:58:56;13.20;74.26
79244;SHT31;68672;42.676;23.356;2023-04-25T05:01:22;13.22;74.07
79244;SHT31;68672;42.676;23.356;2023-04-25T05:03:47;13.25;74.06
79244;SHT31;68672;42.676;23.356;2023-04-25T05:06:13;13.24;74.22
79244;SHT31;68672;42.676;23.356;2023-04-25T05:08:38;13.22;74.44
79244;SHT31;68672;42.676;23.356;2023-04-25T05:11:10;13.25;74.45
79244;SHT31;68672;42.676;23.356;2023-04-25T05:13:36;13.25;74.43
79244;SHT31;68672;42.676;23.356;2023-04-25T05:16:01;13.24;74.58
79244;SHT31;68672;42.676;23.356;2023-04-25T05:18:27;13.28;74.62
79244;SHT31;68672;42.676;23.356;2023-04-25T05:20:52;13.27;74.71
79244;SHT31;68672;42.676;23.356;2023-04-25T05:23:18;13.24;74.72
79244;SHT31;68672;42.676;23.356;2023-04-25T05:25:44;13.20;74.53
79244;SHT31;68672;42.676;23.356;2023-04-25T05:28:11;13.18;74.60
79244;SHT31;68672;42.676;23.356;2023-04-25T05:30:37;13.21;74.51
79244;SHT31;68672;42.676;23.356;2023-04-25T05:33:02;13.21;74.56
79244;SHT31;68672;42.676;23.356;2023-04-25T05:35:28;13.27;74.75
79244;SHT31;68672;42.676;23.356;2023-04-25T05:37:53;13.30;74.55
79244;SHT31;68672;42.676;23.356;2023-04-25T05:40:19;13.34;74.52
79244;SHT31;68672;42.676;23.356;2023-04-25T05:42:44;13.37;74.71
79244;SHT31;68672;42.676;23.356;2023-04-25T05:45:10;13.44;74.59
79244;SHT31;68672;42.676;23.356;2023-04-25T05:47:35;13.45;74.29
79244;SHT31;68672;42.676;23.356;2023-04-25T05:50:01;13.54;74.12
79244;SHT31;68672;42.676;23.356;2023-04-25T05:52:26;13.51;73.79
79244;SHT31;68672;42.676;23.356;2023-04-25T05:54:51;13.52;73.40
79244;SHT31;68672;42.676;23.356;2023-04-25T05:57:24;13.57;73.44
79244;SHT31;68672;42.676;23.356;2023-04-25T05:59:50;13.62;72.20
79244;SHT31;68672;42.676;23.356;2023-04-25T06:02:19;13.57;72.14
79244;SHT31;68672;42.676;23.356;2023-04-25T06:04:46;13.62;72.12
79244;SHT31;68672;42.676;23.356;2023-04-25T06:07:11;13.73;71.75
79244;SHT31;68672;42.676;23.356;2023-04-25T06:09:37;13.76;71.43
79244;SHT31;68672;42.676;23.356;2023-04-25T06:12:04;13.79;70.89
79244;SHT31;68672;42.676;23.356;2023-04-25T06:14:33;13.81;69.87
79244;SHT31;68672;42.676;23.356;2023-04-25T06:16:59;13.73;69.26
79244;SHT31;68672;42.676;23.356;2023-04-25T06:19:27;13.63;70.37
79244;SHT31;68672;42.676;23.356;2023-04-25T06:21:53;13.65;70.59
79244;SHT31;68672;42.676;23.356;2023-04-25T06:24:18;13.62;70.10
79244;SHT31;68672;42.676;23.356;2023-04-25T06:26:50;13.59;70.22
79244;SHT31;68672;42.676;23.356;2023-04-25T06:29:16;13.52;70.30
79244;SHT31;68672;42.676;23.356;2023-04-25T06:31:41;13.47;70.04
79244;SHT31;68672;42.676;23.356;2023-04-25T06:34:06;13.44;69.48
79244;SHT31;68672;42.676;23.356;2023-04-25T06:36:32;13.51;69.63
79244;SHT31;68672;42.676;23.356;2023-04-25T06:38:57;13.61;70.43
79244;SHT31;68672;42.676;23.356;2023-04-25T06:41:23;13.73;68.96
79244;SHT31;68672;42.676;23.356;2023-04-25T06:43:48;13.78;69.30
79244;SHT31;68672;42.676;23.356;2023-04-25T06:46:13;13.95;69.24
79244;SHT31;68672;42.676;23.356;2023-04-25T06:48:39;14.05;68.93
79244;SHT31;68672;42.676;23.356;2023-04-25T06:51:04;14.14;69.03
79244;SHT31;68672;42.676;23.356;2023-04-25T06:53:30;14.29;68.85
79244;SHT31;68672;42.676;23.356;2023-04-25T06:55:55;14.40;68.08
79244;SHT31;68672;42.676;23.356;2023-04-25T06:58:21;14.57;67.49
79244;SHT31;68672;42.676;23.356;2023-04-25T07:00:46;14.67;66.28
79244;SHT31;68672;42.676;23.356;2023-04-25T07:03:14;14.75;66.39
79244;SHT31;68672;42.676;23.356;2023-04-25T07:05:40;14.88;66.46
79244;SHT31;68672;42.676;23.356;2023-04-25T07:08:05;15.03;66.06
79244;SHT31;68672;42.676;23.356;2023-04-25T07:10:31;15.16;65.44
79244;SHT31;68672;42.676;23.356;2023-04-25T07:12:56;15.15;64.65
79244;SHT31;68672;42.676;23.356;2023-04-25T07:15:21;15.11;64.89
79244;SHT31;68672;42.676;23.356;2023-04-25T07:17:47;15.15;65.28
79244;SHT31;68672;42.676;23.356;2023-04-25T07:20:12;15.15;64.93
79244;SHT31;68672;42.676;23.356;2023-04-25T07:22:40;15.16;64.99
79244;SHT31;68672;42.676;23.356;2023-04-25T07:25:06;15.26;65.08
79244;SHT31;68672;42.676;23.356;2023-04-25T07:27:32;15.38;64.49
79244;SHT31;68672;42.676;23.356;2023-04-25T07:29:57;15.49;63.85
79244;SHT31;68672;42.676;23.356;2023-04-25T07:32:23;15.54;63.51
79244;SHT31;68672;42.676;23.356;2023-04-25T07:34:48;15.66;63.36
79244;SHT31;68672;42.676;23.356;2023-04-25T07:37:14;15.86;63.30
79244;SHT31;68672;42.676;23.356;2023-04-25T07:39:40;15.97;63.12
79244;SHT31;68672;42.676;23.356;2023-04-25T07:42:05;16.14;63.32
79244;SHT31;68672;42.676;23.356;2023-04-25T07:44:34;16.17;63.24
79244;SHT31;68672;42.676;23.356;2023-04-25T07:47:07;16.26;63.06
79244;SHT31;68672;42.676;23.356;2023-04-25T07:49:33;16.35;62.46
79244;SHT31;68672;42.676;23.356;2023-04-25T07:52:00;16.42;59.53
79244;SHT31;68672;42.676;23.356;2023-04-25T07:54:25;16.38;58.43
79244;SHT31;68672;42.676;23.356;2023-04-25T07:56:55;16.28;59.64
79244;SHT31;68672;42.676;23.356;2023-04-25T07:59:20;16.29;60.80
79244;SHT31;68672;42.676;23.356;2023-04-25T08:01:46;16.35;60.13
79244;SHT31;68672;42.676;23.356;2023-04-25T08:04:33;16.39;59.91
79244;SHT31;68672;42.676;23.356;2023-04-25T08:06:59;16.45;59.19
79244;SHT31;68672;42.676;23.356;2023-04-25T08:09:25;16.44;59.21
79244;SHT31;68672;42.676;23.356;2023-04-25T08:11:50;16.48;59.73
79244;SHT31;68672;42.676;23.356;2023-04-25T08:14:16;16.65;58.14
79244;SHT31;68672;42.676;23.356;2023-04-25T08:16:41;16.69;57.52
79244;SHT31;68672;42.676;23.356;2023-04-25T08:19:07;16.76;58.00
79244;SHT31;68672;42.676;23.356;2023-04-25T08:21:32;16.86;58.53
79244;SHT31;68672;42.676;23.356;2023-04-25T08:23:58;16.96;58.64
79244;SHT31;68672;42.676;23.356;2023-04-25T08:26:24;17.00;57.90
79244;SHT31;68672;42.676;23.356;2023-04-25T08:28:50;17.06;57.37
79244;SHT31;68672;42.676;23.356;2023-04-25T08:31:16;17.28;56.11
79244;SHT31;68672;42.676;23.356;2023-04-25T08:33:41;17.42;55.30
79244;SHT31;68672;42.676;23.356;2023-04-25T08:36:07;17.45;55.39
79244;SHT31;68672;42.676;23.356;2023-04-25T08:38:35;17.47;54.80
79244;SHT31;68672;42.676;23.356;2023-04-25T08:41:02;17.52;53.61
79244;SHT31;68672;42.676;23.356;2023-04-25T08:43:31;17.51;54.96
79244;SHT31;68672;42.676;23.356;2023-04-25T08:46:00;17.47;56.33
79244;SHT31;68672;42.676;23.356;2023-04-25T08:48:32;17.35;58.35
79244;SHT31;68672;42.676;23.356;2023-04-25T08:51:01;17.26;57.14
79244;SHT31;68672;42.676;23.356;2023-04-25T08:53:30;17.04;60.05
79244;SHT31;68672;42.676;23.356;2023-04-25T08:55:56;17.03;61.10
79244;SHT31;68672;42.676;23.356;2023-04-25T08:58:23;16.91;61.81
79244;SHT31;68672;42.676;23.356;2023-04-25T09:00:50;16.99;61.41
79244;SHT31;68672;42.676;23.356;2023-04-25T09:03:16;17.08;61.11
79244;SHT31;68672;42.676;23.356;2023-04-25T09:05:42;17.31;61.85
79244;SHT31;68672;42.676;23.356;2023-04-25T09:08:08;17.58;63.23
79244;SHT31;68672;42.676;23.356;2023-04-25T09:10:34;17.81;63.47
79244;SHT31;68672;42.676;23.356;2023-04-25T09:13:11;18.03;62.74
79244;SHT31;68672;42.676;23.356;2023-04-25T09:15:55;18.12;61.22
79244;SHT31;68672;42.676;23.356;2023-04-25T09:18:34;18.27;58.82
79244;SHT31;68672;42.676;23.356;2023-04-25T09:21:08;18.50;57.08
79244;SHT31;68672;42.676;23.356;2023-04-25T09:23:46;18.75;56.80
79244;SHT31;68672;42.676;23.356;2023-04-25T09:26:16;18.97;55.68
79244;SHT31;68672;42.676;23.356;2023-04-25T09:28:42;19.05;55.18
79244;SHT31;68672;42.676;23.356;2023-04-25T09:31:23;19.05;54.71
79244;SHT31;68672;42.676;23.356;2023-04-25T09:34:01;19.04;53.98
79244;SHT31;68672;42.676;23.356;2023-04-25T09:36:27;18.99;53.43
79244;SHT31;68672;42.676;23.356;2023-04-25T09:38:56;18.92;53.85
79244;SHT31;68672;42.676;23.356;2023-04-25T09:41:24;18.89;53.17
79244;SHT31;68672;42.676;23.356;2023-04-25T09:43:50;18.83;53.45
79244;SHT31;68672;42.676;23.356;2023-04-25T09:46:16;18.87;53.22
79244;SHT31;68672;42.676;23.356;2023-04-25T09:48:50;19.05;52.05
79244;SHT31;68672;42.676;23.356;2023-04-25T09:51:16;19.09;49.82
79244;SHT31;68672;42.676;23.356;2023-04-25T09:53:45;19.09;49.69
79244;SHT31;68672;42.676;23.356;2023-04-25T09:56:17;18.79;49.81
79244;SHT31;68672;42.676;23.356;2023-04-25T09:58:43;18.69;50.92
79244;SHT31;68672;42.676;23.356;2023-04-25T10:01:10;18.60;51.88
79244;SHT31;68672;42.676;23.356;2023-04-25T10:19:31;18.34;52.97
79244;SHT31;68672;42.676;23.356;2023-04-25T10:22:37;18.16;53.80
79244;SHT31;68672;42.676;23.356;2023-04-25T10:25:02;17.98;54.64
79244;SHT31;68672;42.676;23.356;2023-04-25T10:27:31;17.79;54.99
79244;SHT31;68672;42.676;23.356;2023-04-25T10:30:15;17.90;51.12
79244;SHT31;68672;42.676;23.356;2023-04-25T10:32:42;18.05;52.02
79244;SHT31;68672;42.676;23.356;2023-04-25T10:38:11;18.43;50.35
79244;SHT31;68672;42.676;23.356;2023-04-25T10:40:38;18.74;51.86
79244;SHT31;68672;42.676;23.356;2023-04-25T10:43:36;19.20;50.63
79244;SHT31;68672;42.676;23.356;2023-04-25T10:46:15;19.33;50.61
79244;SHT31;68672;42.676;23.356;2023-04-25T10:48:54;19.37;48.90
79244;SHT31;68672;42.676;23.356;2023-04-25T10:51:25;19.69;48.92
79244;SHT31;68672;42.676;23.356;2023-04-25T10:53:57;20.11;48.53
79244;SHT31;68672;42.676;23.356;2023-04-25T10:56:26;20.31;47.70
79244;SHT31;68672;42.676;23.356;2023-04-25T10:59:23;20.22;47.05
79244;SHT31;68672;42.676;23.356;2023-04-25T11:01:51;20.04;45.77
79244;SHT31;68672;42.676;23.356;2023-04-25T11:04:31;20.01;46.49
79244;SHT31;68672;42.676;23.356;2023-04-25T11:09:39;20.42;45.48
79244;SHT31;68672;42.676;23.356;2023-04-25T11:12:08;20.77;44.31
79244;SHT31;68672;42.676;23.356;2023-04-25T11:14:39;20.99;44.27
79244;SHT31;68672;42.676;23.356;2023-04-25T11:17:04;20.83;46.11
79244;SHT31;68672;42.676;23.356;2023-04-25T11:19:31;21.53;41.72
79244;SHT31;68672;42.676;23.356;2023-04-25T11:21:58;21.43;43.22
79244;SHT31;68672;42.676;23.356;2023-04-25T11:24:33;21.11;43.65
79244;SHT31;68672;42.676;23.356;2023-04-25T11:27:00;20.97;44.78
79244;SHT31;68672;42.676;23.356;2023-04-25T11:29:31;20.61;45.81
79244;SHT31;68672;42.676;23.356;2023-04-25T11:31:57;20.20;46.48
79244;SHT31;68672;42.676;23.356;2023-04-25T11:34:27;19.78;47.17
79244;SHT31;68672;42.676;23.356;2023-04-25T11:36:55;19.39;48.69
79244;SHT31;68672;42.676;23.356;2023-04-25T11:39:21;19.02;49.14
79244;SHT31;68672;42.676;23.356;2023-04-25T11:41:47;18.78;50.58
79244;SHT31;68672;42.676;23.356;2023-04-25T11:44:16;18.54;52.03
79244;SHT31;68672;42.676;23.356;2023-04-25T11:46:45;18.40;52.92
79244;SHT31;68672;42.676;23.356;2023-04-25T11:49:11;18.23;53.55
79244;SHT31;68672;42.676;23.356;2023-04-25T11:51:45;18.03;46.40
79244;SHT31;68672;42.676;23.356;2023-04-25T11:54:11;17.74;49.28
79244;SHT31;68672;42.676;23.356;2023-04-25T11:56:37;17.45;50.94
79244;SHT31;68672;42.676;23.356;2023-04-25T11:59:05;17.18;51.59
79244;SHT31;68672;42.676;23.356;2023-04-25T12:01:36;17.07;52.58
79244;SHT31;68672;42.676;23.356;2023-04-25T12:04:21;17.24;52.54
79244;SHT31;68672;42.676;23.356;2023-04-25T12:06:48;17.58;50.46
79244;SHT31;68672;42.676;23.356;2023-04-25T12:09:16;17.88;48.93
79244;SHT31;68672;42.676;23.356;2023-04-25T12:11:48;18.09;50.14
79244;SHT31;68672;42.676;23.356;2023-04-25T12:14:25;18.22;47.43
79244;SHT31;68672;42.676;23.356;2023-04-25T12:16:52;18.20;48.22
79244;SHT31;68672;42.676;23.356;2023-04-25T12:19:20;18.06;48.78
79244;SHT31;68672;42.676;23.356;2023-04-25T12:21:46;18.03;47.42
79244;SHT31;68672;42.676;23.356;2023-04-25T12:24:16;18.26;47.65
79244;SHT31;68672;42.676;23.356;2023-04-25T12:29:27;18.53;46.34
79244;SHT31;68672;42.676;23.356;2023-04-25T12:31:54;18.65;46.05
79244;SHT31;68672;42.676;23.356;2023-04-25T12:34:20;18.84;46.14
79244;SHT31;68672;42.676;23.356;2023-04-25T12:36:46;19.12;45.25
79244;SHT31;68672;42.676;23.356;2023-04-25T12:39:19;18.88;51.25
79244;SHT31;68672;42.676;23.356;2023-04-25T12:41:46;18.20;55.23
79244;SHT31;68672;42.676;23.356;2023-04-25T12:44:12;17.64;57.35
79244;SHT31;68672;42.676;23.356;2023-04-25T12:46:38;17.37;58.22
79244;SHT31;68672;42.676;23.356;2023-04-25T12:49:07;17.10;59.79
79244;SHT31;68672;42.676;23.356;2023-04-25T12:51:34;16.86;61.53
79244;SHT31;68672;42.676;23.356;2023-04-25T12:54:00;16.70;61.88
79244;SHT31;68672;42.676;23.356;2023-04-25T12:56:28;16.56;62.06
79244;SHT31;68672;42.676;23.356;2023-04-25T12:58:54;16.38;62.52
79244;SHT31;68672;42.676;23.356;2023-04-25T13:01:22;16.24;63.47
79244;SHT31;68672;42.676;23.356;2023-04-25T13:03:48;16.17;64.30
79244;SHT31;68672;42.676;23.356;2023-04-25T13:06:20;15.96;64.19
79244;SHT31;68672;42.676;23.356;2023-04-25T13:08:45;15.71;63.82
79244;SHT31;68672;42.676;23.356;2023-04-25T13:11:11;15.54;63.79
79244;SHT31;68672;42.676;23.356;2023-04-25T13:13:37;15.44;64.48
79244;SHT31;68672;42.676;23.356;2023-04-25T13:16:03;15.32;64.92
79244;SHT31;68672;42.676;23.356;2023-04-25T13:18:29;15.11;65.18
79244;SHT31;68672;42.676;23.356;2023-04-25T13:20:55;14.92;66.11
79244;SHT31;68672;42.676;23.356;2023-04-25T13:23:25;14.81;66.59
79244;SHT31;68672;42.676;23.356;2023-04-25T13:25:51;14.71;67.77
79244;SHT31;68672;42.676;23.356;2023-04-25T13:28:19;14.52;68.62
79244;SHT31;68672;42.676;23.356;2023-04-25T13:30:45;14.33;69.78
79244;SHT31;68672;42.676;23.356;2023-04-25T13:33:11;14.27;70.61
79244;SHT31;68672;42.676;23.356;2023-04-25T13:35:37;14.23;70.58
79244;SHT31;68672;42.676;23.356;2023-04-25T13:38:03;14.14;70.51
79244;SHT31;68672;42.676;23.356;2023-04-25T13:40:29;14.09;70.91
79244;SHT31;68672;42.676;23.356;2023-04-25T13:42:55;14.00;71.20
79244;SHT31;68672;42.676;23.356;2023-04-25T13:45:21;13.92;71.71
79244;SHT31;68672;42.676;23.356;2023-04-25T13:47:49;13.82;72.11
79244;SHT31;68672;42.676;23.356;2023-04-25T13:50:18;13.68;72.97
79244;SHT31;68672;42.676;23.356;2023-04-25T13:52:49;13.65;72.07
79244;SHT31;68672;42.676;23.356;2023-04-25T13:55:15;13.58;72.56
79244;SHT31;68672;42.676;23.356;2023-04-25T13:57:40;13.52;72.44
79244;SHT31;68672;42.676;23.356;2023-04-25T14:00:06;13.47;73.35
79244;SHT31;68672;42.676;23.356;2023-04-25T14:02:34;13.71;72.97
79244;SHT31;68672;42.676;23.356;2023-04-25T14:05:00;14.48;72.82
79244;SHT31;68672;42.676;23.356;2023-04-25T14:07:26;15.25;70.51
79244;SHT31;68672;42.676;23.356;2023-04-25T14:09:54;15.83;69.60
79244;SHT31;68672;42.676;23.356;2023-04-25T14:12:23;16.09;66.41
79244;SHT31;68672;42.676;23.356;2023-04-25T14:14:51;16.52;64.03
79244;SHT31;68672;42.676;23.356;2023-04-25T14:17:20;16.97;63.04
79244;SHT31;68672;42.676;23.356;2023-04-25T14:19:46;17.02;62.06
79244;SHT31;68672;42.676;23.356;2023-04-25T14:22:16;16.90;62.35
79244;SHT31;68672;42.676;23.356;2023-04-25T14:24:41;16.76;62.77
79244;SHT31;68672;42.676;23.356;2023-04-25T14:27:07;16.75;63.03
79244;SHT31;68672;42.676;23.356;2023-04-25T14:29:33;16.69;62.69
79244;SHT31;68672;42.676;23.356;2023-04-25T14:31:58;16.63;62.55
79244;SHT31;68672;42.676;23.356;2023-04-25T14:34:24;16.58;62.68
79244;SHT31;68672;42.676;23.356;2023-04-25T14:36:51;16.58;63.59
79244;SHT31;68672;42.676;23.356;2023-04-25T14:39:17;16.55;63.23
79244;SHT31;68672;42.676;23.356;2023-04-25T14:41:43;16.58;63.00
79244;SHT31;68672;42.676;23.356;2023-04-25T14:44:09;16.63;63.23
79244;SHT31;68672;42.676;23.356;2023-04-25T14:46:34;16.65;63.19
79244;SHT31;68672;42.676;23.356;2023-04-25T14:49:00;16.65;63.05
79244;SHT31;68672;42.676;23.356;2023-04-25T14:51:26;16.63;63.79
79244;SHT31;68672;42.676;23.356;2023-04-25T14:53:51;16.68;62.84
79244;SHT31;68672;42.676;23.356;2023-04-25T14:56:17;16.75;63.30
79244;SHT31;68672;42.676;23.356;2023-04-25T14:58:43;16.83;63.57
79244;SHT31;68672;42.676;23.356;2023-04-25T15:01:09;16.87;63.15
79244;SHT31;68672;42.676;23.356;2023-04-25T15:03:37;16.87;62.01
79244;SHT31;68672;42.676;23.356;2023-04-25T15:06:03;16.84;58.34
79244;SHT31;68672;42.676;23.356;2023-04-25T15:08:31;16.76;59.41
79244;SHT31;68672;42.676;23.356;2023-04-25T15:10:57;16.62;57.00
79244;SHT31;68672;42.676;23.356;2023-04-25T15:13:22;16.53;57.30
79244;SHT31;68672;42.676;23.356;2023-04-25T15:15:48;16.49;58.43
79244;SHT31;68672;42.676;23.356;2023-04-25T15:18:22;16.47;59.62
79244;SHT31;68672;42.676;23.356;2023-04-25T15:20:50;16.41;58.87
79244;SHT31;68672;42.676;23.356;2023-04-25T15:23:16;16.32;58.59
79244;SHT31;68672;42.676;23.356;2023-04-25T15:25:42;16.18;58.64
79244;SHT31;68672;42.676;23.356;2023-04-25T15:28:07;16.05;59.11
79244;SHT31;68672;42.676;23.356;2023-04-25T15:30:32;16.00;60.70
79244;SHT31;68672;42.676;23.356;2023-04-25T15:32:58;15.91;61.29
79244;SHT31;68672;42.676;23.356;2023-04-25T15:35:23;15.83;62.93
79244;SHT31;68672;42.676;23.356;2023-04-25T15:37:49;15.83;62.12
79244;SHT31;68672;42.676;23.356;2023-04-25T15:40:16;15.80;62.02